Time;durP1;ratioP1;P1;durP2;ratioP2;P2;SDS_P1;SDS_P2;PMS_P1;PMS_P2;Temp;Humidity;BMP_temperature;BMP_pressure;BME280_temperature;BME280_humidity;BME280_pressure;Samples;Min_cycle;Max_cycle;Signal;HPM_P1;HPM_P2
2022/12/01 00:01:29;;;;;;;16.70;10.23;;;;;;;;;;5108023;28;20050;-59
2022/12/01 00:04:11;;;;;;;11.88;7.82;;;;;;;;;;5108192;28;20077;-59
2022/12/01 00:06:47;;;;;;;14.87;9.17;;;;;;;;;;5107826;28;20028;-59
2022/12/01 00:12:30;;;;;;;;;;;;;;;;;;;;;
2022/12/01 00:14:59;;;;;;;12.50;8.23;;;;;;;;;;5106048;28;20032;-59
2022/12/01 00:20:47;;;;;;;15.48;9.30;;;;;;;;;;5107929;28;20062;-59
2022/12/01 00:24:20;;;;;;;;;;;;;;;;;;;;;
2022/12/01 00:27:02;;;;;;;14.82;9.57;;;;;;;;;;5000336;28;20475;-59
2022/12/01 00:29:47;;;;;;;13.57;7.28;;;;;;;;;;5031695;28;20052;-59
2022/12/01 00:35:37;;;;;;;16.85;10.88;;;;;;;;;;5106081;28;20107;-59
2022/12/01 00:41:50;;;;;;;15.63;10.15;;;;;;;;;;5132239;28;20039;-59
2022/12/01 00:44:29;;;;;;;12.47;10.57;;;;;;;;;;5048574;28;20085;-59
2022/12/01 00:52:50;;;;;;;;;;;;;;;;;;5033635;28;20041;-59
2022/12/01 00:55:44;;;;;;;12.43;9.93;;;;;;;;;;5031264;28;19905;-59
2022/12/01 00:58:10;;;;;;;16.47;10.03;;;;;;;;;;5049277;28;20044;-59
2022/12/01 01:01:18;;;;;;;;;;;;;;;;;;;;;
2022/12/01 01:03:57;;;;;;;12.68;8.32;;;;;;;;;;5048988;28;20048;-59
2022/12/01 01:06:35;;;;;;;15.88;10.30;;;;;;;;;;5125877;28;20065;-59
2022/12/01 01:09:26;;;;;;;11.25;8.98;;;;;;;;;;5131773;28;20035;-59
2022/12/01 01:12:27;;;;;;;15.38;8.90;;;;;;;;;;5131715;28;20058;-59
2022/12/01 01:15:12;;;;;;;11.13;7.87;;;;;;;;;;5101498;28;20024;-58
2022/12/01 01:17:51;;;;;;;12.60;8.83;;;;;;;;;;5131453;28;20027;-59
2022/12/01 01:20:33;;;;;;;10.65;8.77;;;;;;;;;;5131255;28;20019;-59
2022/12/01 01:23:03;;;;;;;15.47;11.17;;;;;;;;;;5088427;28;20029;-59
2022/12/01 01:26:00;;;;;;;13.93;10.23;;;;;;;;;;5088588;28;20064;-59
2022/12/01 01:28:53;;;;;;;13.98;9.57;;;;;;;;;;5047755;28;20038;-59
2022/12/01 01:34:53;;;;;;;15.13;11.05;;;;;;;;;;5015575;28;20067;-59
2022/12/01 01:37:35;;;;;;;11.43;9.55;;;;;;;;;;5047494;28;20100;-59
2022/12/01 01:43:16;;;;;;;12.33;9.97;;;;;;;;;;5035444;28;20041;-59
2022/12/01 01:46:16;;;;;;;11.60;10.07;;;;;;;;;;5047998;28;20061;-59
2022/12/01 01:49:09;;;;;;;13.38;10.25;;;;;;;;;;5047982;28;20079;-59
2022/12/01 01:52:05;;;;;;;11.47;9.87;;;;;;;;;;5037811;28;20030;-59
2022/12/01 01:54:49;;;;;;;17.03;10.07;;;;;;;;;;5064981;28;20127;-59
2022/12/01 02:00:18;;;;;;;16.03;11.77;;;;;;;;;;5121535;28;20030;-59
2022/12/01 02:03:11;;;;;;;11.63;9.30;;;;;;;;;;5112011;28;20038;-59
2022/12/01 02:06:20;;;;;;;;;;;;;;;;;;;;;
2022/12/01 02:08:45;;;;;;;13.07;8.70;;;;;;;;;;5024224;28;20106;-59
2022/12/01 02:14:40;;;;;;;15.57;11.20;;;;;;;;;;4997985;28;20062;-59
2022/12/01 02:17:25;;;;;;;14.97;10.60;;;;;;;;;;5027626;28;20036;-59
2022/12/01 02:20:11;;;;;;;15.80;10.93;;;;;;;;;;5027991;28;20040;-59
2022/12/01 02:23:02;;;;;;;11.63;8.90;;;;;;;;;;5060700;28;20058;-59
2022/12/01 02:28:51;;;;;;;;;;;;;;;;;;;;;
2022/12/01 02:31:36;;;;;;;13.90;9.97;;;;;;;;;;5126996;28;20056;-59
2022/12/01 02:34:40;;;;;;;;;;;;;;;;;;;;;
2022/12/01 02:37:29;;;;;;;16.20;11.05;;;;;;;;;;5129538;28;20086;-59
2022/12/01 02:43:24;;;;;;;14.63;9.27;;;;;;;;;;5118518;28;20034;-59
2022/12/01 02:46:28;;;;;;;10.80;8.50;;;;;;;;;;5130154;28;20031;-59
2022/12/01 02:52:45;;;;;;;14.37;8.83;;;;;;;;;;5006069;28;20041;-59
2022/12/01 02:55:32;;;;;;;14.87;10.57;;;;;;;;;;5128786;28;20043;-59
2022/12/01 02:58:25;;;;;;;14.70;11.20;;;;;;;;;;5129501;28;20020;-59
2022/12/01 03:04:16;;;;;;;16.27;11.93;;;;;;;;;;5129689;28;20042;-59
2022/12/01 03:07:20;;;;;;;16.92;11.63;;;;;;;;;;5129377;28;20020;-59
2022/12/01 03:10:08;;;;;;;12.70;9.27;;;;;;;;;;5129638;28;20039;-59
2022/12/01 03:15:55;;;;;;;15.57;12.15;;;;;;;;;;5129574;28;20040;-59
2022/12/01 03:18:33;;;;;;;12.87;10.30;;;;;;;;;;5129732;28;20075;-59
2022/12/01 03:21:36;;;;;;;14.50;10.87;;;;;;;;;;5129619;28;20024;-59
2022/12/01 03:24:32;;;;;;;14.33;11.20;;;;;;;;;;5128910;28;20099;-59
2022/12/01 03:27:20;;;;;;;15.63;9.40;;;;;;;;;;5129471;28;20054;-59
2022/12/01 03:32:52;;;;;;;21.33;11.33;;;;;;;;;;5066873;28;20044;-59
2022/12/01 03:36:13;;;;;;;13.98;10.13;;;;;;;;;;5034280;28;20407;-59
2022/12/01 03:45:03;;;;;;;14.85;9.63;;;;;;;;;;5066786;28;20072;-59
2022/12/01 03:51:05;;;;;;;9.88;8.85;;;;;;;;;;5051965;28;20051;-59
2022/12/01 03:54:03;;;;;;;15.65;11.35;;;;;;;;;;5066502;28;20148;-59
2022/12/01 03:56:53;;;;;;;17.97;12.77;;;;;;;;;;5049083;28;20029;-59
2022/12/01 04:00:00;;;;;;;14.57;9.80;;;;;;;;;;5072047;28;20036;-59
2022/12/01 04:02:43;;;;;;;18.83;12.37;;;;;;;;;;5082428;28;20089;-59
2022/12/01 04:05:23;;;;;;;20.40;13.10;;;;;;;;;;5110487;28;20032;-59
2022/12/01 04:08:19;;;;;;;13.38;10.30;;;;;;;;;;5110196;28;20032;-59
2022/12/01 04:13:56;;;;;;;21.20;11.47;;;;;;;;;;5110456;28;20050;-59
2022/12/01 04:16:56;;;;;;;13.73;9.00;;;;;;;;;;5109167;28;20043;-59
2022/12/01 04:19:46;;;;;;;22.85;11.43;;;;;;;;;;5109889;28;20497;-59
2022/12/01 04:22:37;;;;;;;12.15;9.65;;;;;;;;;;5110190;28;20034;-59
2022/12/01 04:25:27;;;;;;;17.17;12.95;;;;;;;;;;5110353;28;20028;-59
2022/12/01 04:28:11;;;;;;;14.93;9.77;;;;;;;;;;5049934;28;20049;-59
2022/12/01 04:30:55;;;;;;;15.43;9.97;;;;;;;;;;5107995;28;20040;-59
2022/12/01 04:33:55;;;;;;;17.30;11.60;;;;;;;;;;5079780;28;20024;-59
2022/12/01 04:36:34;;;;;;;17.10;12.77;;;;;;;;;;5095971;28;20600;-59
2022/12/01 04:39:06;;;;;;;15.10;10.97;;;;;;;;;;5061474;28;20132;-59
2022/12/01 04:42:00;;;;;;;17.08;11.15;;;;;;;;;;5096675;28;20473;-59
2022/12/01 04:44:41;;;;;;;16.70;11.60;;;;;;;;;;5119144;28;20362;-59
2022/12/01 04:50:27;;;;;;;14.15;9.85;;;;;;;;;;5117657;28;19912;-59
2022/12/01 04:53:16;;;;;;;19.70;13.97;;;;;;;;;;5117363;28;20575;-59
2022/12/01 04:56:12;;;;;;;12.93;10.87;;;;;;;;;;5118612;28;20024;-58
2022/12/01 04:59:12;;;;;;;11.30;8.87;;;;;;;;;;5116400;28;20040;-58
2022/12/01 05:01:54;;;;;;;11.90;8.40;;;;;;;;;;5116662;28;20059;-58
2022/12/01 05:04:24;;;;;;;14.30;9.43;;;;;;;;;;5100231;28;20192;-58
2022/12/01 05:10:29;;;;;;;11.30;8.57;;;;;;;;;;4956400;28;20043;-58
2022/12/01 05:12:59;;;;;;;;;;;;;;;;;;4971949;28;20584;-58
2022/12/01 05:15:40;;;;;;;13.83;10.87;;;;;;;;;;5048121;28;20354;-58
2022/12/01 05:21:29;;;;;;;16.10;10.53;;;;;;;;;;5065805;28;20044;-58
2022/12/01 05:24:10;;;;;;;13.17;10.33;;;;;;;;;;5074712;28;20040;-58
2022/12/01 05:26:52;;;;;;;14.90;11.20;;;;;;;;;;5074595;28;20385;-58
2022/12/01 05:29:53;;;;;;;15.10;11.23;;;;;;;;;;5074450;28;20402;-58
2022/12/01 05:32:42;;;;;;;18.77;12.10;;;;;;;;;;5005865;28;20046;-58
2022/12/01 05:35:18;;;;;;;14.30;11.80;;;;;;;;;;5008582;28;20150;-58
2022/12/01 05:44:05;;;;;;;;;;;;;;;;;;;;;
2022/12/01 05:47:09;;;;;;;;;;;;;;;;;;;;;
2022/12/01 05:52:41;;;;;;;18.30;11.37;;;;;;;;;;5110231;28;20047;-58
2022/12/01 05:55:19;;;;;;;14.87;12.13;;;;;;;;;;5092927;28;20117;-58
2022/12/01 05:58:03;;;;;;;14.10;10.43;;;;;;;;;;5092117;28;20502;-58
2022/12/01 06:00:41;;;;;;;16.03;10.67;;;;;;;;;;5109800;28;20046;-58
2022/12/01 06:03:17;;;;;;;22.07;12.10;;;;;;;;;;5109788;28;20020;-58
2022/12/01 06:06:14;;;;;;;14.43;10.07;;;;;;;;;;5109807;28;20083;-58
2022/12/01 06:09:09;;;;;;;14.50;11.37;;;;;;;;;;5110626;28;20040;-58
2022/12/01 06:12:07;;;;;;;18.63;11.00;;;;;;;;;;5108007;28;20044;-59
2022/12/01 06:14:36;;;;;;;16.67;11.93;;;;;;;;;;5027764;28;20038;-58
2022/12/01 06:20:06;;;;;;;15.03;11.63;;;;;;;;;;5089923;28;20093;-59
2022/12/01 06:22:58;;;;;;;13.37;11.77;;;;;;;;;;5018732;28;20059;-59
2022/12/01 06:25:44;;;;;;;20.27;14.20;;;;;;;;;;5093262;28;20030;-59
2022/12/01 06:28:23;;;;;;;19.30;13.80;;;;;;;;;;5091497;28;20028;-59
2022/12/01 06:31:08;;;;;;;18.87;11.63;;;;;;;;;;5109321;28;20047;-59
2022/12/01 06:33:48;;;;;;;15.30;12.70;;;;;;;;;;5109116;28;20035;-58
2022/12/01 06:36:29;;;;;;;18.37;12.13;;;;;;;;;;5108673;28;20032;-58
2022/12/01 06:41:44;;;;;;;14.83;13.40;;;;;;;;;;5108898;28;19911;-59
2022/12/01 06:44:37;;;;;;;22.25;17.05;;;;;;;;;;5108961;28;20050;-59
2022/12/01 06:47:06;;;;;;;15.70;12.93;;;;;;;;;;5107439;28;20024;-58
2022/12/01 06:52:51;;;;;;;17.63;14.20;;;;;;;;;;5103559;28;20061;-59
2022/12/01 06:55:26;;;;;;;;;;;;;;;;;;5108810;28;20024;-58
2022/12/01 06:58:15;;;;;;;16.60;14.60;;;;;;;;;;5107919;28;19933;-58
2022/12/01 07:01:16;;;;;;;18.67;13.60;;;;;;;;;;5106102;28;20068;-59
2022/12/01 07:04:08;;;;;;;17.23;12.80;;;;;;;;;;5106518;28;20066;-58
2022/12/01 07:09:54;;;;;;;18.90;13.13;;;;;;;;;;5019876;28;20052;-58
2022/12/01 07:13:07;;;;;;;20.93;14.47;;;;;;;;;;5122821;28;20114;-58
2022/12/01 07:15:58;;;;;;;16.37;12.67;;;;;;;;;;5123526;28;20038;-58
2022/12/01 07:18:49;;;;;;;18.13;13.27;;;;;;;;;;5124207;28;20116;-59
2022/12/01 07:21:25;;;;;;;20.03;13.40;;;;;;;;;;5120274;28;20369;-58
2022/12/01 07:27:05;;;;;;;25.13;12.95;;;;;;;;;;5115635;28;20111;-58
2022/12/01 07:29:48;;;;;;;16.90;12.40;;;;;;;;;;5101556;28;20042;-58
2022/12/01 07:32:52;;;;;;;17.37;13.57;;;;;;;;;;5085269;28;20091;-58
2022/12/01 07:35:40;;;;;;;18.10;14.23;;;;;;;;;;5123575;28;20020;-58
2022/12/01 07:38:08;;;;;;;19.47;11.70;;;;;;;;;;5101134;28;20043;-59
2022/12/01 07:44:20;;;;;;;21.02;12.45;;;;;;;;;;5045710;28;20094;-59
2022/12/01 07:46:58;;;;;;;15.57;11.65;;;;;;;;;;5045726;28;20106;-58
2022/12/01 07:49:36;;;;;;;23.80;14.87;;;;;;;;;;5045793;28;20419;-58
2022/12/01 07:52:05;;;;;;;17.00;11.63;;;;;;;;;;5095350;28;20035;-58
2022/12/01 07:54:59;;;;;;;;;;;;;;;;;;;;;
2022/12/01 07:57:53;;;;;;;16.63;12.90;;;;;;;;;;5075752;28;20071;-58
2022/12/01 08:00:54;;;;;;;15.67;12.77;;;;;;;;;;5128917;28;20395;-58
2022/12/01 08:03:49;;;;;;;13.80;12.30;;;;;;;;;;5104845;28;20034;-58
2022/12/01 08:18:39;;;;;;;18.40;12.87;;;;;;;;;;5035262;28;20029;-58
2022/12/01 08:21:40;;;;;;;;;;;;;;;;;;;;;
2022/12/01 08:24:32;;;;;;;17.60;13.82;;;;;;;;;;5061982;28;20053;-59
2022/12/01 08:27:16;;;;;;;14.57;10.57;;;;;;;;;;5047474;28;20051;-59
2022/12/01 08:30:13;;;;;;;21.13;14.67;;;;;;;;;;5064951;28;20092;-59
2022/12/01 08:32:55;;;;;;;15.73;10.47;;;;;;;;;;5065540;28;20029;-59
2022/12/01 08:35:39;;;;;;;;;;;;;;;;;;;;;
2022/12/01 08:38:39;;;;;;;15.83;11.70;;;;;;;;;;5046411;28;20061;-58
2022/12/01 08:41:27;;;;;;;20.10;14.55;;;;;;;;;;5128216;28;20031;-58
2022/12/01 08:47:16;;;;;;;16.47;12.97;;;;;;;;;;5045185;28;20045;-60
2022/12/01 08:50:14;;;;;;;15.00;11.13;;;;;;;;;;5131606;28;20024;-60
2022/12/01 08:53:07;;;;;;;16.87;13.90;;;;;;;;;;5107721;28;20027;-60
2022/12/01 08:56:06;;;;;;;20.77;13.33;;;;;;;;;;5131791;28;20079;-60
2022/12/01 08:58:31;;;;;;;15.57;11.47;;;;;;;;;;5128658;28;20073;-60
2022/12/01 09:01:29;;;;;;;16.70;12.60;;;;;;;;;;5131586;28;20028;-60
2022/12/01 09:04:30;;;;;;;22.83;16.37;;;;;;;;;;5097850;28;20036;-60
2022/12/01 09:07:20;;;;;;;16.53;12.73;;;;;;;;;;5125505;28;20036;-60
2022/12/01 09:10:02;;;;;;;15.43;11.50;;;;;;;;;;5130559;28;20058;-60
2022/12/01 09:12:43;;;;;;;17.93;11.87;;;;;;;;;;5129851;28;20030;-60
2022/12/01 09:18:30;;;;;;;20.77;11.20;;;;;;;;;;5067198;28;20056;-60
2022/12/01 09:21:36;;;;;;;;;;;;;;;;;;;;;
2022/12/01 09:24:20;;;;;;;15.10;12.07;;;;;;;;;;5069906;28;20097;-60
2022/12/01 09:26:59;;;;;;;20.20;12.40;;;;;;;;;;5086852;28;20043;-57
2022/12/01 09:29:50;;;;;;;17.80;11.33;;;;;;;;;;5088438;28;20045;-57
2022/12/01 09:32:55;;;;;;;17.93;13.30;;;;;;;;;;5082624;28;20032;-58
2022/12/01 09:36:00;;;;;;;16.57;12.73;;;;;;;;;;5006130;28;20118;-56
2022/12/01 09:42:25;;;;;;;15.37;12.87;;;;;;;;;;4994644;28;20042;-58
2022/12/01 09:45:14;;;;;;;14.93;11.93;;;;;;;;;;4917352;29;20043;-57
2022/12/01 09:47:50;;;;;;;13.73;10.70;;;;;;;;;;4956465;29;20114;-57
2022/12/01 09:50:48;;;;;;;16.87;12.30;;;;;;;;;;4986920;28;20120;-58
2022/12/01 09:53:34;;;;;;;16.30;12.60;;;;;;;;;;4996618;28;20503;-57
2022/12/01 09:56:19;;;;;;;16.10;12.63;;;;;;;;;;5019250;28;20041;-58
2022/12/01 09:58:58;;;;;;;20.03;14.30;;;;;;;;;;5022022;28;20500;-58
2022/12/01 10:01:52;;;;;;;20.07;13.37;;;;;;;;;;5033477;28;20437;-56
2022/12/01 10:04:22;;;;;;;12.13;10.82;;;;;;;;;;5034269;28;20034;-58
2022/12/01 10:07:07;;;;;;;22.42;13.88;;;;;;;;;;5034612;28;20037;-56
2022/12/01 10:09:59;;;;;;;20.25;13.00;;;;;;;;;;5034520;28;20046;-56
2022/12/01 10:12:40;;;;;;;16.70;13.32;;;;;;;;;;5033523;28;20368;-56
2022/12/01 10:15:12;;;;;;;;;;;;;;;;;;5034081;28;20482;-55
2022/12/01 10:18:14;;;;;;;14.20;11.60;;;;;;;;;;5034132;28;20418;-56
2022/12/01 10:20:47;;;;;;;19.37;10.53;;;;;;;;;;5054400;28;20605;-53
2022/12/01 10:23:30;;;;;;;20.37;12.87;;;;;;;;;;5053541;28;20033;-54
2022/12/01 10:26:30;;;;;;;;;;;;;;;;;;;;;
2022/12/01 10:32:58;;;;;;;13.32;10.10;;;;;;;;;;5032927;28;20523;-55
2022/12/01 10:39:05;;;;;;;;;;;;;;;;;;;;;
2022/12/01 10:45:21;;;;;;;13.60;10.70;;;;;;;;;;5033419;28;20084;-56
2022/12/01 10:48:19;;;;;;;;;;;;;;;;;;;;;
2022/12/01 10:51:07;;;;;;;12.90;8.87;;;;;;;;;;5042193;28;20048;-55
2022/12/01 10:56:30;;;;;;;15.03;10.93;;;;;;;;;;5052836;28;20506;-53
2022/12/01 11:02:39;;;;;;;14.57;10.50;;;;;;;;;;5051933;28;20101;-55
2022/12/01 11:05:33;;;;;;;19.98;11.88;;;;;;;;;;5084295;28;20455;-56
2022/12/01 11:08:23;;;;;;;17.97;13.17;;;;;;;;;;5113424;28;20376;-56
2022/12/01 11:11:25;;;;;;;13.33;9.53;;;;;;;;;;5103644;28;20408;-57
2022/12/01 11:17:29;;;;;;;13.53;9.70;;;;;;;;;;5116063;28;20100;-56
2022/12/01 11:20:37;;;;;;;23.07;12.77;;;;;;;;;;5115419;28;20041;-57
2022/12/01 11:23:30;;;;;;;13.57;12.15;;;;;;;;;;5114050;28;20033;-56
2022/12/01 11:26:14;;;;;;;13.50;11.93;;;;;;;;;;5115196;28;20038;-54
2022/12/01 11:29:14;;;;;;;15.83;11.60;;;;;;;;;;5097653;28;20362;-57
2022/12/01 11:31:49;;;;;;;13.77;10.65;;;;;;;;;;5115299;28;20076;-55
2022/12/01 11:34:39;;;;;;;22.75;11.63;;;;;;;;;;5092681;28;20048;-56
2022/12/01 11:37:33;;;;;;;;;;;;;;;;;;;;;
2022/12/01 11:46:21;;;;;;;;;;;;;;;;;;5115071;28;20054;-56
2022/12/01 11:49:40;;;;;;;13.68;10.32;;;;;;;;;;5114810;28;20268;-53
2022/12/01 11:52:37;;;;;;;17.67;12.30;;;;;;;;;;5106191;28;20515;-57
2022/12/01 11:55:34;;;;;;;;;;;;;;;;;;;;;
2022/12/01 11:58:04;;;;;;;14.13;11.10;;;;;;;;;;5115257;28;20042;-54
2022/12/01 12:00:49;;;;;;;15.33;11.37;;;;;;;;;;5113207;28;20469;-56
2022/12/01 12:03:43;;;;;;;17.05;12.40;;;;;;;;;;5114816;28;20492;-56
2022/12/01 12:06:28;;;;;;;18.10;12.20;;;;;;;;;;5115041;28;20100;-56
2022/12/01 12:09:15;;;;;;;14.05;10.27;;;;;;;;;;5114445;28;20442;-54
2022/12/01 12:12:04;;;;;;;20.80;12.87;;;;;;;;;;5114286;28;20032;-56
2022/12/01 12:18:07;;;;;;;16.70;12.38;;;;;;;;;;5034475;28;20037;-55
2022/12/01 12:20:56;;;;;;;14.07;10.38;;;;;;;;;;5114428;28;20023;-57
2022/12/01 12:24:02;;;;;;;16.17;12.02;;;;;;;;;;5093531;28;20071;-53
2022/12/01 12:27:03;;;;;;;13.55;10.82;;;;;;;;;;5118890;28;20036;-56
2022/12/01 12:29:56;;;;;;;14.95;11.32;;;;;;;;;;5035688;28;20040;-56
2022/12/01 12:36:04;;;;;;;17.40;11.77;;;;;;;;;;5118821;28;20449;-52
2022/12/01 12:39:02;;;;;;;14.27;9.88;;;;;;;;;;5099827;28;20481;-57
2022/12/01 12:41:54;;;;;;;14.18;12.40;;;;;;;;;;5099457;28;20519;-54
2022/12/01 12:44:45;;;;;;;31.10;13.63;;;;;;;;;;5099200;28;20028;-57
2022/12/01 12:50:48;;;;;;;16.17;11.68;;;;;;;;;;5093376;28;20077;-56
2022/12/01 12:59:56;;;;;;;16.00;13.07;;;;;;;;;;5105991;28;20511;-55
2022/12/01 13:03:04;;;;;;;16.48;12.63;;;;;;;;;;5113190;28;20434;-56
2022/12/01 13:05:30;;;;;;;19.45;11.23;;;;;;;;;;5115407;28;20059;-55
2022/12/01 13:08:19;;;;;;;16.95;12.68;;;;;;;;;;5118119;28;20484;-56
2022/12/01 13:11:15;;;;;;;14.43;11.55;;;;;;;;;;5111728;28;20104;-55
2022/12/01 13:20:18;;;;;;;15.23;9.15;;;;;;;;;;5123579;28;20031;-57
2022/12/01 13:23:09;;;;;;;;;;;;;;;;;;;;;
2022/12/01 13:25:54;;;;;;;15.93;10.93;;;;;;;;;;5116335;28;20321;-56
2022/12/01 13:29:02;;;;;;;13.40;11.30;;;;;;;;;;5117138;28;20076;-57
2022/12/01 13:31:42;;;;;;;12.13;9.98;;;;;;;;;;5086742;28;20393;-56
2022/12/01 13:34:27;;;;;;;14.48;10.27;;;;;;;;;;5096762;28;20031;-56
2022/12/01 13:37:08;;;;;;;18.70;11.88;;;;;;;;;;5116556;28;20030;-55
2022/12/01 13:39:49;;;;;;;14.18;9.98;;;;;;;;;;5117999;28;20028;-54
2022/12/01 13:48:53;;;;;;;13.23;10.40;;;;;;;;;;5116612;28;20038;-58
2022/12/01 13:54:58;;;;;;;14.98;11.68;;;;;;;;;;5114228;28;20537;-58
2022/12/01 13:57:37;;;;;;;13.68;10.88;;;;;;;;;;5075917;28;20031;-58
2022/12/01 14:00:31;;;;;;;15.55;8.80;;;;;;;;;;5115002;28;20040;-58
2022/12/01 14:06:31;;;;;;;15.23;10.80;;;;;;;;;;5116244;28;20052;-60
2022/12/01 14:09:16;;;;;;;;;;;;;;;;;;5117376;28;20449;-59
2022/12/01 14:12:00;;;;;;;12.43;9.85;;;;;;;;;;5116411;28;19908;-58
2022/12/01 14:14:53;;;;;;;16.05;10.75;;;;;;;;;;5116656;28;20035;-58
2022/12/01 14:17:33;;;;;;;17.35;11.95;;;;;;;;;;5116351;28;20023;-59
2022/12/01 14:20:34;;;;;;;;;;;;;;;;;;;;;
2022/12/01 14:23:42;;;;;;;15.48;9.98;;;;;;;;;;5116532;28;20368;-60
2022/12/01 14:26:27;;;;;;;14.45;9.98;;;;;;;;;;5065619;28;20085;-59
2022/12/01 14:29:15;;;;;;;12.07;8.55;;;;;;;;;;5094716;28;20039;-58
2022/12/01 14:31:49;;;;;;;18.38;10.98;;;;;;;;;;5097250;28;20031;-59
2022/12/01 14:34:38;;;;;;;13.43;10.52;;;;;;;;;;5116149;28;20034;-59
2022/12/01 14:37:23;;;;;;;13.27;9.23;;;;;;;;;;5097721;28;20024;-59
2022/12/01 14:40:05;;;;;;;15.30;9.98;;;;;;;;;;5116268;28;20119;-59
2022/12/01 14:46:09;;;;;;;17.45;10.63;;;;;;;;;;5114778;28;20381;-58
2022/12/01 14:49:17;;;;;;;15.95;8.10;;;;;;;;;;5110865;28;20042;-59
2022/12/01 14:52:11;;;;;;;15.55;10.88;;;;;;;;;;5116825;28;20103;-61
2022/12/01 14:55:00;;;;;;;17.42;11.48;;;;;;;;;;5115647;28;20069;-59
2022/12/01 14:57:48;;;;;;;16.25;9.57;;;;;;;;;;5114518;28;20036;-59
2022/12/01 15:00:45;;;;;;;17.13;10.13;;;;;;;;;;5116387;28;20027;-55
2022/12/01 15:03:59;;;;;;;;;;;;;;;;;;;;;
2022/12/01 15:06:42;;;;;;;15.25;9.55;;;;;;;;;;5115388;28;20118;-55
2022/12/01 15:09:39;;;;;;;12.45;8.52;;;;;;;;;;5116119;28;20028;-56
2022/12/01 15:12:28;;;;;;;11.13;9.48;;;;;;;;;;5097084;28;20027;-56
2022/12/01 15:15:16;;;;;;;13.02;9.15;;;;;;;;;;5115085;28;20057;-56
2022/12/01 15:18:01;;;;;;;;;;;;;;;;;;;;;
2022/12/01 15:21:12;;;;;;;;;;;;;;;;;;;;;
2022/12/01 15:27:11;;;;;;;11.60;8.30;;;;;;;;;;5115351;28;20456;-54
2022/12/01 15:29:55;;;;;;;11.27;9.02;;;;;;;;;;5100087;28;20046;-56
2022/12/01 15:36:05;;;;;;;13.30;9.75;;;;;;;;;;5119537;28;20484;-56
2022/12/01 15:38:38;;;;;;;15.90;10.88;;;;;;;;;;5114219;28;20059;-56
2022/12/01 15:41:55;;;;;;;16.08;10.02;;;;;;;;;;5076842;28;20526;-56
2022/12/01 15:44:42;;;;;;;14.65;9.65;;;;;;;;;;5110152;28;20134;-56
2022/12/01 15:47:38;;;;;;;15.80;9.48;;;;;;;;;;5114343;28;20043;-55
2022/12/01 15:53:58;;;;;;;;;;;;;;;;;;;;;
2022/12/01 15:56:59;;;;;;;;;;;;;;;;;;;;;
2022/12/01 15:59:37;;;;;;;12.35;9.52;;;;;;;;;;5118725;28;20392;-55
2022/12/01 16:02:28;;;;;;;16.70;9.80;;;;;;;;;;5112918;28;20050;-58
2022/12/01 16:05:31;;;;;;;16.33;10.33;;;;;;;;;;5119364;28;20059;-56
2022/12/01 16:08:18;;;;;;;12.55;9.20;;;;;;;;;;5090892;28;20265;-56
2022/12/01 16:14:19;;;;;;;15.50;9.68;;;;;;;;;;5117352;28;20032;-57
2022/12/01 16:17:21;;;;;;;14.13;8.73;;;;;;;;;;5118938;28;20023;-54
2022/12/01 16:20:42;;;;;;;;;;;;;;;;;;;;;
2022/12/01 16:23:41;;;;;;;14.15;10.90;;;;;;;;;;5035318;28;20044;-58
2022/12/01 16:26:18;;;;;;;;;;;;;;;;;;;;;
2022/12/01 16:29:11;;;;;;;12.63;9.95;;;;;;;;;;5020610;28;20387;-56
2022/12/01 16:31:47;;;;;;;18.25;11.48;;;;;;;;;;4956992;29;20045;-56
2022/12/01 16:34:39;;;;;;;13.02;9.90;;;;;;;;;;5032464;28;20033;-55
2022/12/01 16:37:11;;;;;;;13.00;9.77;;;;;;;;;;5019227;28;20487;-57
2022/12/01 16:39:55;;;;;;;14.45;10.93;;;;;;;;;;5035332;28;20072;-56
2022/12/01 16:54:40;;;;;;;12.45;9.30;;;;;;;;;;5097545;28;20044;-57
2022/12/01 17:00:26;;;;;;;15.50;9.95;;;;;;;;;;5097877;28;20512;-56
2022/12/01 17:02:58;;;;;;;16.52;10.77;;;;;;;;;;5077029;28;20029;-56
2022/12/01 17:08:48;;;;;;;17.13;12.43;;;;;;;;;;5052085;28;20059;-56
2022/12/01 17:11:41;;;;;;;11.20;8.93;;;;;;;;;;5087176;28;20277;-56
2022/12/01 17:14:36;;;;;;;15.68;10.82;;;;;;;;;;5098102;28;20020;-57
2022/12/01 17:20:48;;;;;;;19.80;11.18;;;;;;;;;;5089138;28;20119;-54
2022/12/01 17:23:24;;;;;;;11.97;10.57;;;;;;;;;;5034946;28;20034;-56
2022/12/01 17:41:15;;;;;;;17.02;11.38;;;;;;;;;;5053138;28;20040;-57
2022/12/01 17:44:01;;;;;;;14.57;10.43;;;;;;;;;;5106685;28;20193;-57
2022/12/01 17:46:54;;;;;;;15.40;11.10;;;;;;;;;;5099646;28;20028;-53
2022/12/01 17:50:04;;;;;;;15.30;11.35;;;;;;;;;;5098855;28;20530;-50
2022/12/01 17:53:14;;;;;;;;;;;;;;;;;;;;;
2022/12/01 17:55:45;;;;;;;18.02;12.50;;;;;;;;;;5121509;28;20421;-53
2022/12/01 17:58:26;;;;;;;14.82;10.30;;;;;;;;;;5116968;28;20035;-53
2022/12/01 18:01:01;;;;;;;17.17;10.70;;;;;;;;;;5117331;28;20032;-53
2022/12/01 18:03:36;;;;;;;18.73;12.25;;;;;;;;;;5098521;28;20058;-57
2022/12/01 18:06:47;;;;;;;16.17;11.88;;;;;;;;;;5116627;28;20015;-55
2022/12/01 18:09:25;;;;;;;16.42;11.68;;;;;;;;;;4996617;28;20046;-55
2022/12/01 18:12:20;;;;;;;13.93;10.35;;;;;;;;;;5092091;28;20036;-52
2022/12/01 18:15:05;;;;;;;14.23;10.70;;;;;;;;;;5113966;28;20038;-55
2022/12/01 18:21:23;;;;;;;16.83;12.13;;;;;;;;;;5090997;28;20085;-54
2022/12/01 18:26:48;;;;;;;11.85;10.57;;;;;;;;;;5114752;28;19930;-57
2022/12/01 18:29:32;;;;;;;17.77;12.30;;;;;;;;;;5099771;28;20063;-52
2022/12/01 18:32:30;;;;;;;10.13;8.10;;;;;;;;;;5115606;28;20488;-52
2022/12/01 18:40:47;;;;;;;;;;;;;;;;;;5116945;28;20102;-50
2022/12/01 18:46:36;;;;;;;13.30;11.05;;;;;;;;;;5101562;28;20477;-52
2022/12/01 18:49:29;;;;;;;17.27;12.48;;;;;;;;;;5095876;28;20049;-56
2022/12/01 18:52:37;;;;;;;16.25;11.30;;;;;;;;;;5065150;28;20032;-56
2022/12/01 19:06:32;;;;;;;18.73;13.45;;;;;;;;;;5052862;28;20032;-56
2022/12/01 19:09:03;;;;;;;13.68;10.63;;;;;;;;;;5027332;28;20079;-54
2022/12/01 19:15:05;;;;;;;20.47;14.20;;;;;;;;;;5039221;28;20036;-53
2022/12/01 19:21:20;;;;;;;17.23;12.75;;;;;;;;;;4993159;28;20105;-52
2022/12/01 19:24:09;;;;;;;15.35;11.18;;;;;;;;;;5052939;28;20378;-52
2022/12/01 19:26:44;;;;;;;23.40;12.63;;;;;;;;;;5052408;28;20036;-51
2022/12/01 19:29:52;;;;;;;18.77;11.25;;;;;;;;;;5115341;28;20131;-54
2022/12/01 19:36:07;;;;;;;;;;;;;;;;;;;;;
2022/12/01 19:41:53;;;;;;;12.80;10.52;;;;;;;;;;5110740;28;20089;-52
2022/12/01 19:53:53;;;;;;;14.02;11.35;;;;;;;;;;5115254;28;20058;-54
2022/12/01 19:56:36;;;;;;;20.80;13.50;;;;;;;;;;5115558;28;20259;-56
2022/12/01 20:05:08;;;;;;;18.38;11.77;;;;;;;;;;5097550;28;20085;-55
2022/12/01 20:07:49;;;;;;;20.92;12.52;;;;;;;;;;5115897;28;20028;-55
2022/12/01 20:10:24;;;;;;;15.07;11.82;;;;;;;;;;5119396;28;20059;-56
2022/12/01 20:16:22;;;;;;;16.35;12.68;;;;;;;;;;5114802;28;20034;-57
2022/12/01 20:19:20;;;;;;;21.42;14.25;;;;;;;;;;5114313;28;20110;-56
2022/12/01 20:22:07;;;;;;;;;;;;;;;;;;;;;
2022/12/01 20:28:01;;;;;;;17.35;11.57;;;;;;;;;;5110178;28;20057;-57
2022/12/01 20:30:39;;;;;;;17.50;11.20;;;;;;;;;;5114848;28;20070;-57
2022/12/01 20:33:25;;;;;;;18.15;13.43;;;;;;;;;;5094135;28;20492;-56
2022/12/01 20:42:38;;;;;;;17.80;13.07;;;;;;;;;;5100258;28;20027;-56
2022/12/01 20:51:51;;;;;;;20.02;12.98;;;;;;;;;;5028286;28;20077;-51
2022/12/01 20:54:21;;;;;;;17.77;12.32;;;;;;;;;;5041461;28;20063;-55
2022/12/01 20:59:51;;;;;;;18.93;13.03;;;;;;;;;;5097139;28;20489;-57
2022/12/01 21:08:40;;;;;;;15.38;11.65;;;;;;;;;;5093846;28;20067;-57
2022/12/01 21:14:41;;;;;;;17.02;12.93;;;;;;;;;;5097184;28;20062;-55
2022/12/01 21:20:35;;;;;;;16.23;13.00;;;;;;;;;;5097028;28;20374;-53
2022/12/01 21:26:15;;;;;;;20.70;14.17;;;;;;;;;;5085772;28;20480;-56
2022/12/01 21:28:51;;;;;;;21.40;14.40;;;;;;;;;;5097890;28;20020;-55
2022/12/01 21:31:46;;;;;;;15.82;12.32;;;;;;;;;;5097613;28;20086;-57
2022/12/01 21:34:48;;;;;;;19.08;13.13;;;;;;;;;;5046353;28;20032;-53
2022/12/01 21:37:35;;;;;;;17.98;11.57;;;;;;;;;;5051167;28;20474;-55
2022/12/01 21:40:27;;;;;;;16.88;12.43;;;;;;;;;;5072748;28;20040;-54
2022/12/01 21:43:34;;;;;;;17.88;13.13;;;;;;;;;;5096803;28;20043;-55
2022/12/01 21:46:40;;;;;;;16.05;13.10;;;;;;;;;;5111438;28;20054;-50
2022/12/01 21:49:16;;;;;;;21.10;13.10;;;;;;;;;;5092331;28;20401;-56
2022/12/01 21:51:56;;;;;;;15.95;12.40;;;;;;;;;;5116976;28;20108;-56
2022/12/01 21:54:43;;;;;;;18.65;12.55;;;;;;;;;;5116731;28;20027;-56
2022/12/01 21:57:42;;;;;;;25.33;14.48;;;;;;;;;;5108067;28;20043;-56
2022/12/01 22:00:32;;;;;;;20.90;15.00;;;;;;;;;;5117521;28;20027;-57
2022/12/01 22:03:27;;;;;;;21.63;14.23;;;;;;;;;;5112596;28;20024;-54
2022/12/01 22:06:24;;;;;;;13.48;12.13;;;;;;;;;;5130613;28;20045;-57
2022/12/01 22:09:11;;;;;;;21.55;14.23;;;;;;;;;;5130377;28;20074;-56
2022/12/01 22:11:41;;;;;;;13.57;11.15;;;;;;;;;;5130845;28;20028;-55
2022/12/01 22:14:26;;;;;;;18.75;13.77;;;;;;;;;;5130807;28;20043;-54
2022/12/01 22:22:59;;;;;;;20.95;14.20;;;;;;;;;;5098059;28;20117;-52
2022/12/01 22:25:48;;;;;;;16.08;13.23;;;;;;;;;;5112438;28;20027;-56
2022/12/01 22:28:34;;;;;;;18.95;14.07;;;;;;;;;;5124789;28;20061;-55